Current Weather

Glendale Muni

Glendale, Arizona (KGEU)

Report from: Tuesday, May 28, 2024 7:47 PM MST
Current time: Wednesday, May 29, 2024 2:49 AM MST

Nearby weather – Weather history – Daily summaries
Weather forecast

Temperature36.0°C (96.8°F)
Heat index33.2°C (91.7°F)
Dew point-5.0°C (23.0°F)
Winds 6 kts (3.1 m/s, 6.9 mph) Southwest (230°)
Visibility10 mi. (16.1 km)
Clouds Scattered clouds 25,000 ft. (7,620 m)
Altimeter29.78 in.Hg (1008 mB)
Relative humidity7 %
Density altitude2,612 ft. (796 m)
Remarks Last observation of the day
Flight conditions Visual Meteorological Conditions
Raw dataKGEU 290247Z 23006KT 10SM SCT250 36/M05 A2978 RMK LAST
An error has occurred. This application may no longer respond until reloaded. Reload 🗙